Time;durP1;ratioP1;P1;durP2;ratioP2;P2;SDS_P1;SDS_P2;PMS_P1;PMS_P2;Temp;Humidity;BMP_temperature;BMP_pressure;BME280_temperature;BME280_humidity;BME280_pressure;Samples;Min_cycle;Max_cycle;Signal;HPM_P1;HPM_P2
2022/03/30 00:00:27;;;;;;;33.65;19.63;;;17.90;59.30;;;;;;5047228;28;20033;-60
2022/03/30 00:02:54;;;;;;;35.17;19.45;;;17.90;59.30;;;;;;5046903;28;20033;-59
2022/03/30 00:05:20;;;;;;;31.35;18.67;;;17.90;59.30;;;;;;5047321;28;20029;-59
2022/03/30 00:07:50;;;;;;;32.90;19.27;;;17.90;59.20;;;;;;5046781;28;20405;-60
2022/03/30 00:10:16;;;;;;;32.90;18.50;;;17.90;59.30;;;;;;5045212;28;20029;-60
2022/03/30 00:12:42;;;;;;;31.33;18.50;;;17.90;59.20;;;;;;5047128;28;20036;-60
2022/03/30 00:15:08;;;;;;;31.52;18.75;;;17.90;59.30;;;;;;5045124;28;20033;-60
2022/03/30 00:17:33;;;;;;;31.13;18.13;;;17.90;59.30;;;;;;5048245;28;20041;-60
2022/03/30 00:19:59;;;;;;;31.23;18.20;;;17.90;59.30;;;;;;5045311;28;20021;-60
2022/03/30 00:22:26;;;;;;;32.75;18.95;;;17.90;59.40;;;;;;5047218;28;20404;-60
2022/03/30 00:24:52;;;;;;;32.13;19.10;;;17.90;59.30;;;;;;5047640;28;20079;-60
2022/03/30 00:27:17;;;;;;;32.45;19.00;;;17.90;59.40;;;;;;5046628;28;20467;-60
2022/03/30 00:29:44;;;;;;;30.98;18.52;;;17.80;59.30;;;;;;5046937;28;20025;-60
2022/03/30 00:32:10;;;;;;;30.02;18.02;;;17.80;59.20;;;;;;5047623;28;20116;-60
2022/03/30 00:34:36;;;;;;;31.85;18.33;;;17.80;59.30;;;;;;5045762;28;20712;-60
2022/03/30 00:37:02;;;;;;;28.15;16.85;;;17.80;59.30;;;;;;5045876;28;20099;-60
2022/03/30 00:39:28;;;;;;;29.35;17.58;;;17.80;59.20;;;;;;5044033;28;20041;-60
2022/03/30 00:41:53;;;;;;;30.70;17.77;;;17.80;59.30;;;;;;5044272;28;20052;-60
2022/03/30 00:44:19;;;;;;;29.30;16.90;;;17.80;59.30;;;;;;5046313;28;20063;-60
2022/03/30 00:46:45;;;;;;;28.65;17.85;;;17.80;59.20;;;;;;5041925;28;20017;-60
2022/03/30 00:49:13;;;;;;;29.95;17.15;;;17.80;59.30;;;;;;5042351;28;20491;-60
2022/03/30 00:51:39;;;;;;;32.72;17.83;;;17.80;59.30;;;;;;5046823;28;20024;-60
2022/03/30 00:54:05;;;;;;;32.05;17.95;;;17.80;59.30;;;;;;5044873;28;20444;-60
2022/03/30 00:56:33;;;;;;;31.52;17.38;;;17.80;59.40;;;;;;5046297;28;20093;-60
2022/03/30 00:59:00;;;;;;;29.35;17.08;;;17.80;59.30;;;;;;5045374;28;20601;-60
2022/03/30 01:01:26;;;;;;;33.28;18.63;;;17.80;59.30;;;;;;5044776;28;20025;-59
2022/03/30 01:03:51;;;;;;;27.98;17.20;;;17.80;59.30;;;;;;5045623;28;20040;-60
2022/03/30 01:06:17;;;;;;;28.70;16.88;;;17.80;60.40;;;;;;5044364;28;20037;-60
2022/03/30 01:08:43;;;;;;;28.40;16.95;;;17.80;59.30;;;;;;5047569;28;20039;-60
2022/03/30 01:11:10;;;;;;;27.88;16.45;;;17.70;59.40;;;;;;5040254;28;20538;-60
2022/03/30 01:13:35;;;;;;;29.52;17.00;;;17.80;59.30;;;;;;5043446;28;20036;-60
2022/03/30 01:16:02;;;;;;;28.05;16.85;;;17.70;59.40;;;;;;5045863;28;20021;-60
2022/03/30 01:18:28;;;;;;;29.48;16.58;;;17.70;59.30;;;;;;5046144;28;20040;-60
2022/03/30 01:20:53;;;;;;;31.90;17.50;;;17.70;59.40;;;;;;5045009;28;20071;-59
2022/03/30 01:23:19;;;;;;;30.60;17.42;;;17.70;59.30;;;;;;5041863;28;20453;-60
2022/03/30 01:25:45;;;;;;;26.75;17.38;;;17.70;59.40;;;;;;5042521;28;20031;-60
2022/03/30 01:28:11;;;;;;;27.55;16.45;;;17.70;59.40;;;;;;5044927;28;20033;-60
2022/03/30 01:33:21;;;;;;;27.80;16.35;;;17.70;59.40;;;;;;5044932;28;20044;-60
2022/03/30 01:35:46;;;;;;;26.70;15.90;;;17.70;59.40;;;;;;5044770;28;20021;-59
2022/03/30 01:38:12;;;;;;;28.08;15.55;;;17.70;59.40;;;;;;5044170;28;20060;-60
2022/03/30 01:40:39;;;;;;;26.90;16.27;;;17.70;59.40;;;;;;5044619;28;20031;-60
2022/03/30 01:43:05;;;;;;;27.23;16.13;;;17.70;59.40;;;;;;5044255;28;20045;-60
2022/03/30 01:45:30;;;;;;;26.33;15.57;;;17.70;59.40;;;;;;5043681;28;20031;-60
2022/03/30 01:47:59;;;;;;;24.98;15.63;;;17.70;59.50;;;;;;5043419;28;20482;-59
2022/03/30 01:50:25;;;;;;;25.40;15.13;;;17.60;59.50;;;;;;5047453;28;20025;-60
2022/03/30 01:52:51;;;;;;;27.73;16.00;;;17.60;59.30;;;;;;5041569;28;20033;-60
2022/03/30 01:55:17;;;;;;;28.88;16.25;;;17.60;59.40;;;;;;5044647;28;20025;-60
2022/03/30 01:57:43;;;;;;;25.52;15.52;;;17.60;59.50;;;;;;5046127;28;20637;-59
2022/03/30 02:00:10;;;;;;;26.02;15.50;;;17.60;59.50;;;;;;5039205;28;20445;-60
2022/03/30 02:02:36;;;;;;;25.98;15.32;;;17.60;59.40;;;;;;5046708;28;20031;-60
2022/03/30 02:05:02;;;;;;;24.70;14.75;;;17.60;59.50;;;;;;5044317;28;20029;-60
2022/03/30 02:07:28;;;;;;;25.90;15.32;;;17.60;59.40;;;;;;5045199;28;20029;-60
2022/03/30 02:09:54;;;;;;;24.50;14.23;;;17.60;59.40;;;;;;5044723;28;20051;-60
2022/03/30 02:12:20;;;;;;;25.40;14.88;;;17.60;59.50;;;;;;5044964;28;20474;-60
2022/03/30 02:14:46;;;;;;;24.70;14.35;;;17.60;59.40;;;;;;5042978;28;20477;-60
2022/03/30 02:17:12;;;;;;;23.17;14.35;;;17.60;59.40;;;;;;5044631;28;20091;-59
2022/03/30 02:19:37;;;;;;;25.35;14.57;;;17.60;59.50;;;;;;5044496;28;20824;-60
2022/03/30 02:22:03;;;;;;;24.48;14.75;;;17.60;59.50;;;;;;5043627;28;20435;-60
2022/03/30 02:24:29;;;;;;;26.10;14.90;;;17.60;59.50;;;;;;5044951;28;20118;-59
2022/03/30 02:26:54;;;;;;;23.17;15.10;;;17.60;59.50;;;;;;5042188;28;20083;-60
2022/03/30 02:29:20;;;;;;;25.65;14.73;;;17.60;59.50;;;;;;5047473;28;20024;-60
2022/03/30 02:31:46;;;;;;;24.27;14.32;;;17.60;59.50;;;;;;5043094;28;20032;-60
2022/03/30 02:34:12;;;;;;;23.25;13.85;;;17.50;59.40;;;;;;5041952;28;20049;-60
2022/03/30 02:36:37;;;;;;;23.02;13.85;;;17.60;59.60;;;;;;5045517;28;20040;-60
2022/03/30 02:39:04;;;;;;;24.08;14.55;;;17.60;60.60;;;;;;5044207;28;20049;-60
2022/03/30 02:41:29;;;;;;;23.33;13.45;;;17.60;59.60;;;;;;5044767;28;20025;-60
2022/03/30 02:43:55;;;;;;;23.33;14.18;;;17.50;59.40;;;;;;5043031;28;20041;-60
2022/03/30 02:46:21;;;;;;;23.77;13.73;;;17.50;59.40;;;;;;5046766;28;20025;-60
2022/03/30 02:48:46;;;;;;;21.67;12.90;;;17.50;59.50;;;;;;5044710;28;20029;-60
2022/03/30 02:51:12;;;;;;;21.10;13.43;;;17.50;59.50;;;;;;5047065;28;20366;-60
2022/03/30 02:53:38;;;;;;;23.85;13.93;;;17.50;59.50;;;;;;5049603;28;20032;-60
2022/03/30 02:56:04;;;;;;;22.17;13.88;;;17.50;59.50;;;;;;5048474;28;20067;-60
2022/03/30 02:58:29;;;;;;;23.23;13.27;;;17.50;59.60;;;;;;5046745;28;20064;-60
2022/03/30 03:00:55;;;;;;;20.88;13.15;;;17.50;59.60;;;;;;5046580;28;20493;-60
2022/03/30 03:03:21;;;;;;;22.20;12.75;;;17.50;59.60;;;;;;5046749;28;20451;-59
2022/03/30 03:05:47;;;;;;;23.27;13.48;;;17.50;59.60;;;;;;5049364;28;20115;-59
2022/03/30 03:08:13;;;;;;;24.17;13.50;;;17.50;60.80;;;;;;5060688;28;20572;-59
2022/03/30 03:10:40;;;;;;;21.70;13.65;;;17.50;61.20;;;;;;5041218;28;20413;-59
2022/03/30 03:13:06;;;;;;;25.25;14.13;;;17.50;61.40;;;;;;5048212;28;20033;-60
2022/03/30 03:15:33;;;;;;;24.23;13.75;;;17.50;61.30;;;;;;5047819;28;20040;-59
2022/03/30 03:17:59;;;;;;;23.17;13.45;;;17.50;61.10;;;;;;5045013;28;20029;-60
2022/03/30 03:20:25;;;;;;;21.88;13.57;;;17.50;60.90;;;;;;5047713;28;20665;-59
2022/03/30 03:22:50;;;;;;;21.17;12.98;;;17.50;60.80;;;;;;5042305;28;20301;-59
2022/03/30 03:25:16;;;;;;;22.48;12.85;;;17.50;60.80;;;;;;5045889;28;20888;-60
2022/03/30 03:27:42;;;;;;;23.23;12.77;;;17.50;61.10;;;;;;5043735;28;20453;-60
2022/03/30 03:30:08;;;;;;;22.88;12.38;;;17.50;62.20;;;;;;5048810;28;20040;-60
2022/03/30 03:32:34;;;;;;;22.60;12.68;;;17.50;62.00;;;;;;5049048;28;20037;-60
2022/03/30 03:35:00;;;;;;;22.60;13.18;;;17.50;61.50;;;;;;5047669;28;20538;-59
2022/03/30 03:37:25;;;;;;;20.35;12.95;;;17.50;61.30;;;;;;5046047;28;20053;-59
2022/03/30 03:39:51;;;;;;;22.73;13.02;;;17.50;61.60;;;;;;5048316;28;20082;-60
2022/03/30 03:42:17;;;;;;;21.17;12.90;;;17.50;61.50;;;;;;5047982;28;20032;-60
2022/03/30 03:44:42;;;;;;;23.42;12.77;;;17.50;61.40;;;;;;5048944;28;20087;-60
2022/03/30 03:47:09;;;;;;;23.48;13.38;;;17.50;61.30;;;;;;5048078;28;20533;-59
2022/03/30 03:49:36;;;;;;;19.55;11.95;;;17.50;61.50;;;;;;5048309;28;20025;-59
2022/03/30 03:52:01;;;;;;;22.23;12.90;;;17.50;61.30;;;;;;5045637;28;20028;-59
2022/03/30 03:54:27;;;;;;;20.00;12.50;;;17.50;61.50;;;;;;5045023;28;20382;-60
2022/03/30 03:56:53;;;;;;;22.02;12.63;;;17.50;61.40;;;;;;5046705;28;20439;-60
2022/03/30 03:59:19;;;;;;;24.13;12.60;;;17.50;61.30;;;;;;5049097;28;20025;-60
2022/03/30 04:01:44;;;;;;;21.52;12.20;;;17.50;61.60;;;;;;5045766;28;20035;-60
2022/03/30 04:04:10;;;;;;;19.48;11.82;;;17.50;61.10;;;;;;5047579;28;20619;-60
2022/03/30 04:06:36;;;;;;;20.13;12.15;;;17.50;61.40;;;;;;5046740;28;20489;-60
2022/03/30 04:09:02;;;;;;;22.02;12.25;;;17.50;61.40;;;;;;5047663;28;20132;-60
2022/03/30 04:11:27;;;;;;;19.95;11.70;;;17.50;61.40;;;;;;5046618;28;20398;-60
2022/03/30 04:13:53;;;;;;;20.27;11.23;;;17.60;61.60;;;;;;5044841;28;20053;-60
2022/03/30 04:16:19;;;;;;;18.77;11.77;;;17.50;61.10;;;;;;5042196;28;20045;-60
2022/03/30 04:18:45;;;;;;;20.45;11.57;;;17.50;61.40;;;;;;5045569;28;20469;-60
2022/03/30 04:21:10;;;;;;;19.10;11.40;;;17.50;61.30;;;;;;5047268;28;20023;-60
2022/03/30 04:23:36;;;;;;;22.83;12.38;;;17.50;61.30;;;;;;5048053;28;20040;-60
2022/03/30 04:26:02;;;;;;;19.80;10.98;;;17.50;61.30;;;;;;5046143;28;20021;-59
2022/03/30 04:28:28;;;;;;;20.90;11.38;;;17.50;61.20;;;;;;5047286;28;20052;-60
2022/03/30 04:30:53;;;;;;;18.92;10.90;;;17.50;61.00;;;;;;5043843;28;20401;-60
2022/03/30 04:33:19;;;;;;;19.73;11.95;;;17.50;61.10;;;;;;5043513;28;20021;-60
2022/03/30 04:35:45;;;;;;;19.35;11.50;;;17.50;61.00;;;;;;5047234;28;20100;-60
2022/03/30 04:38:11;;;;;;;19.42;11.30;;;17.50;61.00;;;;;;5046983;28;20044;-60
2022/03/30 04:40:36;;;;;;;19.67;11.27;;;17.50;61.30;;;;;;5046944;28;20024;-59
2022/03/30 04:43:02;;;;;;;18.98;10.95;;;17.50;61.20;;;;;;5045752;28;20051;-60
2022/03/30 04:45:28;;;;;;;19.98;11.52;;;17.50;61.10;;;;;;5047003;28;20032;-60
2022/03/30 04:47:54;;;;;;;18.90;11.38;;;17.50;61.10;;;;;;5039154;28;20028;-60
2022/03/30 04:50:20;;;;;;;18.48;11.13;;;17.50;61.20;;;;;;5047385;28;20113;-60
2022/03/30 04:52:46;;;;;;;17.73;10.43;;;17.50;61.10;;;;;;5044957;28;20037;-60
2022/03/30 04:55:12;;;;;;;17.08;10.20;;;17.50;61.20;;;;;;5046493;28;20021;-60
2022/03/30 04:57:38;;;;;;;18.10;10.82;;;17.50;61.10;;;;;;5045270;28;20065;-60
2022/03/30 05:00:04;;;;;;;18.92;9.77;;;17.50;61.40;;;;;;5047058;28;20064;-59
2022/03/30 05:02:32;;;;;;;17.48;10.50;;;17.50;62.20;;;;;;5045020;28;20034;-59
2022/03/30 05:04:57;;;;;;;18.30;10.55;;;17.50;61.60;;;;;;5045377;28;20115;-59
2022/03/30 05:07:24;;;;;;;18.40;11.10;;;17.50;61.60;;;;;;5045908;28;20143;-59
2022/03/30 05:09:49;;;;;;;21.23;10.38;;;17.50;62.00;;;;;;5045535;28;20029;-59
2022/03/30 05:12:15;;;;;;;17.75;10.60;;;17.60;62.40;;;;;;5045041;28;20095;-59
2022/03/30 05:14:41;;;;;;;17.58;10.38;;;17.60;62.40;;;;;;5047586;28;20025;-59
2022/03/30 05:17:08;;;;;;;18.60;9.85;;;17.60;62.30;;;;;;5046538;28;20409;-60
2022/03/30 05:19:34;;;;;;;20.60;10.73;;;17.60;62.30;;;;;;5043039;28;20033;-59
2022/03/30 05:22:00;;;;;;;22.88;10.98;;;17.60;62.70;;;;;;5040499;28;20035;-59
2022/03/30 05:24:25;;;;;;;20.00;10.90;;;17.60;64.40;;;;;;5044221;28;20036;-60
2022/03/30 05:26:53;;;;;;;17.33;10.23;;;17.60;64.20;;;;;;5046721;28;20036;-60
2022/03/30 05:29:19;;;;;;;18.58;10.63;;;17.70;63.80;;;;;;5046672;28;20029;-60
2022/03/30 05:31:45;;;;;;;20.25;10.40;;;17.70;63.70;;;;;;5044549;28;20051;-60
2022/03/30 05:34:11;;;;;;;18.13;10.60;;;17.70;63.70;;;;;;5045665;28;20583;-60
2022/03/30 05:36:37;;;;;;;21.83;9.80;;;17.70;63.70;;;;;;5046160;28;20028;-60
2022/03/30 05:39:03;;;;;;;20.73;10.65;;;17.70;63.70;;;;;;5044843;28;20053;-59
2022/03/30 05:41:29;;;;;;;18.17;10.55;;;17.70;63.70;;;;;;5041881;28;20032;-59
2022/03/30 05:43:54;;;;;;;19.40;10.75;;;17.70;63.70;;;;;;5042141;28;20178;-59
2022/03/30 05:46:20;;;;;;;18.30;10.20;;;17.60;63.30;;;;;;5045741;28;20478;-59
2022/03/30 05:48:46;;;;;;;18.65;10.43;;;17.60;63.30;;;;;;5045762;28;20021;-59
2022/03/30 05:51:11;;;;;;;19.58;10.20;;;17.60;63.50;;;;;;5045318;28;20027;-59
2022/03/30 05:53:37;;;;;;;15.77;9.70;;;17.60;63.20;;;;;;5040978;28;20026;-59
2022/03/30 05:56:03;;;;;;;18.73;9.90;;;17.60;63.00;;;;;;5043871;28;20033;-59
2022/03/30 05:58:29;;;;;;;18.23;9.57;;;17.50;63.00;;;;;;5046534;28;20595;-59
2022/03/30 06:00:54;;;;;;;18.02;9.70;;;17.50;62.90;;;;;;5045881;28;20498;-59
2022/03/30 06:03:20;;;;;;;18.67;8.90;;;17.50;63.10;;;;;;5044755;28;20078;-60
2022/03/30 06:05:46;;;;;;;18.67;10.35;;;17.50;62.90;;;;;;5046386;28;20035;-59
2022/03/30 06:08:11;;;;;;;17.45;9.40;;;17.50;62.90;;;;;;5046887;28;20374;-59
2022/03/30 06:10:37;;;;;;;20.77;9.93;;;17.50;62.60;;;;;;5044902;28;20402;-59
2022/03/30 06:13:03;;;;;;;17.70;9.95;;;17.50;62.80;;;;;;5046547;28;20182;-59
2022/03/30 06:15:29;;;;;;;18.35;10.30;;;17.50;62.80;;;;;;5045807;28;20687;-59
2022/03/30 06:17:55;;;;;;;16.52;9.60;;;17.50;62.70;;;;;;5046489;28;20397;-59
2022/03/30 06:20:22;;;;;;;19.13;10.02;;;17.50;62.60;;;;;;5046883;28;20061;-59
2022/03/30 06:22:47;;;;;;;18.05;9.57;;;17.50;63.80;;;;;;5050068;28;20036;-59
2022/03/30 06:25:13;;;;;;;17.27;9.82;;;17.50;62.80;;;;;;5049923;28;20029;-59
2022/03/30 06:27:40;;;;;;;16.95;9.18;;;17.50;62.80;;;;;;5046841;28;20025;-59
2022/03/30 06:30:07;;;;;;;15.05;8.63;;;17.50;62.60;;;;;;5049870;28;20497;-59
2022/03/30 06:32:33;;;;;;;17.77;9.55;;;17.40;62.50;;;;;;5051013;28;20029;-59
2022/03/30 06:34:59;;;;;;;15.80;9.25;;;17.50;62.50;;;;;;5048821;28;20048;-59
2022/03/30 06:37:24;;;;;;;16.60;9.20;;;17.40;62.70;;;;;;5048141;28;20087;-59
2022/03/30 06:39:50;;;;;;;16.70;9.25;;;17.40;62.40;;;;;;5049878;28;20021;-59
2022/03/30 06:42:19;;;;;;;17.60;9.95;;;17.50;62.50;;;;;;5049655;28;20056;-59
2022/03/30 06:44:45;;;;;;;15.13;9.20;;;17.40;62.30;;;;;;5048785;28;20560;-59
2022/03/30 06:47:11;;;;;;;17.58;9.43;;;17.40;62.50;;;;;;5049717;28;20028;-59
2022/03/30 06:49:37;;;;;;;17.67;9.00;;;17.40;62.40;;;;;;5050102;28;20033;-59
2022/03/30 06:52:04;;;;;;;16.65;9.88;;;17.40;62.30;;;;;;5049465;28;20028;-59
2022/03/30 06:54:29;;;;;;;17.05;8.93;;;17.40;62.40;;;;;;5048177;28;20520;-59
2022/03/30 06:56:55;;;;;;;16.02;8.70;;;17.40;62.30;;;;;;5048713;28;20017;-59
2022/03/30 06:59:20;;;;;;;17.98;9.40;;;17.40;62.20;;;;;;5048975;28;20582;-59
2022/03/30 07:01:46;;;;;;;15.93;8.50;;;17.40;62.20;;;;;;5046399;28;20036;-59
2022/03/30 07:04:12;;;;;;;15.75;9.10;;;17.40;62.10;;;;;;5048978;28;20054;-60
2022/03/30 07:10:14;;;;;;;14.23;8.20;;;17.40;62.20;;;;;;5048396;28;20159;-59
2022/03/30 07:12:08;;;;;;;16.83;8.98;;;17.40;62.20;;;;;;5046912;28;20036;-59
2022/03/30 07:14:34;;;;;;;15.90;8.40;;;17.40;62.00;;;;;;5049888;28;20029;-59
2022/03/30 07:16:59;;;;;;;17.42;8.88;;;17.40;61.90;;;;;;5048613;28;20032;-59
2022/03/30 07:19:25;;;;;;;16.40;9.00;;;17.40;62.10;;;;;;5048794;28;20029;-60
2022/03/30 07:21:50;;;;;;;16.52;9.13;;;17.40;62.00;;;;;;5048370;28;20439;-59
2022/03/30 07:24:16;;;;;;;15.63;8.68;;;17.40;62.00;;;;;;5048706;28;20036;-59
2022/03/30 07:26:42;;;;;;;14.95;8.30;;;17.40;62.00;;;;;;5048809;28;20029;-59
2022/03/30 07:29:07;;;;;;;17.77;9.02;;;17.40;61.80;;;;;;5048162;28;20029;-59
2022/03/30 07:31:34;;;;;;;15.65;8.77;;;17.40;61.90;;;;;;5043284;28;20028;-59
2022/03/30 07:33:59;;;;;;;16.55;9.05;;;17.30;61.80;;;;;;5046280;28;20029;-59
2022/03/30 07:36:25;;;;;;;18.40;9.40;;;17.40;62.00;;;;;;5048653;28;20126;-59
2022/03/30 07:38:51;;;;;;;15.15;8.80;;;17.40;62.30;;;;;;5048763;28;20132;-59
2022/03/30 07:41:16;;;;;;;15.75;9.40;;;17.30;62.00;;;;;;5049336;28;20032;-59
2022/03/30 07:43:42;;;;;;;15.90;9.20;;;17.30;61.80;;;;;;5046559;28;20061;-59
2022/03/30 07:46:11;;;;;;;16.42;9.35;;;17.40;62.00;;;;;;5048030;28;20056;-59
2022/03/30 07:48:36;;;;;;;15.60;9.20;;;17.30;61.90;;;;;;5048731;28;20029;-59
2022/03/30 07:51:02;;;;;;;15.73;8.98;;;17.30;62.00;;;;;;5047897;28;20029;-59
2022/03/30 07:53:28;;;;;;;14.77;8.70;;;17.30;62.00;;;;;;5049542;28;20033;-59
2022/03/30 07:55:55;;;;;;;16.95;8.93;;;17.30;62.00;;;;;;5044751;28;20111;-59
2022/03/30 07:58:21;;;;;;;15.45;8.90;;;17.30;61.90;;;;;;5047125;28;20444;-59
2022/03/30 08:00:47;;;;;;;15.90;9.07;;;17.30;61.90;;;;;;5047030;28;20021;-59
2022/03/30 08:03:13;;;;;;;16.77;9.55;;;17.30;62.00;;;;;;5048501;28;20564;-59
2022/03/30 08:05:38;;;;;;;14.68;8.80;;;17.30;62.00;;;;;;5041334;28;20107;-59
2022/03/30 08:08:06;;;;;;;16.23;8.90;;;17.30;61.70;;;;;;5048116;28;20053;-59
2022/03/30 08:10:33;;;;;;;16.98;9.65;;;17.30;61.90;;;;;;5047371;28;20028;-60
2022/03/30 08:12:58;;;;;;;15.55;8.35;;;17.30;61.90;;;;;;5046774;28;20155;-59
2022/03/30 08:15:25;;;;;;;15.63;9.10;;;17.30;61.70;;;;;;5047790;28;20108;-59
2022/03/30 08:17:51;;;;;;;15.93;9.27;;;17.30;61.70;;;;;;5047092;28;20021;-59
2022/03/30 08:23:09;;;;;;;16.52;8.73;;;17.30;61.70;;;;;;5023687;28;20087;-59
2022/03/30 08:25:35;;;;;;;15.80;9.02;;;17.30;61.70;;;;;;5024731;28;20069;-60
2022/03/30 08:28:01;;;;;;;16.65;8.90;;;17.30;61.70;;;;;;5024727;28;20059;-59
2022/03/30 08:30:27;;;;;;;17.35;9.52;;;17.30;61.70;;;;;;5007112;28;20067;-59
2022/03/30 08:32:52;;;;;;;16.23;9.77;;;17.30;61.80;;;;;;5025341;28;20041;-59
2022/03/30 08:35:18;;;;;;;15.45;9.20;;;17.30;61.70;;;;;;5026480;28;20399;-59
2022/03/30 08:37:44;;;;;;;17.73;9.68;;;17.30;61.60;;;;;;5024596;28;20170;-60
2022/03/30 08:40:09;;;;;;;17.25;9.52;;;17.30;61.60;;;;;;5020211;28;20174;-59
2022/03/30 08:42:36;;;;;;;16.75;9.35;;;17.20;61.50;;;;;;5024070;28;20060;-59
2022/03/30 08:45:05;;;;;;;17.65;9.93;;;17.30;61.70;;;;;;5022889;28;20075;-59
2022/03/30 08:47:32;;;;;;;17.55;9.40;;;17.30;61.70;;;;;;5025523;28;20037;-59
2022/03/30 08:49:57;;;;;;;15.95;9.50;;;17.20;61.40;;;;;;5021508;28;20030;-59
2022/03/30 08:52:23;;;;;;;16.17;9.68;;;17.20;61.70;;;;;;5020971;28;20044;-59
2022/03/30 08:54:50;;;;;;;17.77;8.98;;;17.20;61.40;;;;;;5024793;28;20041;-59
2022/03/30 08:57:15;;;;;;;17.02;9.70;;;17.20;61.40;;;;;;5024405;28;20026;-59
2022/03/30 09:00:05;;;;;;;19.05;10.55;;;17.30;61.50;;;;;;5033586;28;20037;-59
2022/03/30 09:03:00;;;;;;;15.05;9.38;;;17.20;61.50;;;;;;5047740;28;20029;-59
2022/03/30 09:05:27;;;;;;;15.23;9.50;;;17.20;62.50;;;;;;5045785;28;20106;-59
2022/03/30 09:08:11;;;;;;;17.70;9.68;;;17.20;61.50;;;;;;5046239;28;20029;-59
2022/03/30 09:10:37;;;;;;;16.55;9.68;;;17.20;61.40;;;;;;5045365;28;20036;-59
2022/03/30 09:13:03;;;;;;;17.95;10.15;;;17.20;61.50;;;;;;5042543;28;20037;-59
2022/03/30 09:15:29;;;;;;;16.05;8.95;;;17.20;61.50;;;;;;5046244;28;20029;-59
2022/03/30 09:18:01;;;;;;;17.35;10.45;;;17.20;61.30;;;;;;5046191;28;20051;-59
2022/03/30 09:20:27;;;;;;;18.15;10.07;;;17.20;61.30;;;;;;5046305;28;20039;-59
2022/03/30 09:22:57;;;;;;;16.83;9.77;;;17.20;61.20;;;;;;5045575;28;20037;-59
2022/03/30 09:25:27;;;;;;;18.48;10.05;;;17.20;61.40;;;;;;5044462;28;20033;-59
2022/03/30 09:27:54;;;;;;;17.73;9.77;;;17.20;61.40;;;;;;5046147;28;20024;-60
2022/03/30 09:30:21;;;;;;;17.08;10.23;;;17.20;61.20;;;;;;5046683;28;20056;-59
2022/03/30 09:32:48;;;;;;;16.38;9.25;;;17.20;61.40;;;;;;5020513;28;20552;-59
2022/03/30 09:35:37;;;;;;;14.43;8.52;;;17.20;61.10;;;;;;5046873;28;20037;-59
2022/03/30 09:38:22;;;;;;;15.55;9.10;;;17.20;61.10;;;;;;5045109;28;20049;-60
2022/03/30 09:40:49;;;;;;;16.25;9.52;;;17.20;61.20;;;;;;5045691;28;20033;-59
2022/03/30 09:43:22;;;;;;;16.52;9.90;;;17.20;61.30;;;;;;5045071;28;20509;-59
2022/03/30 09:45:49;;;;;;;16.02;9.60;;;17.20;61.20;;;;;;5046677;28;20314;-59
2022/03/30 09:48:23;;;;;;;16.40;9.13;;;17.20;61.20;;;;;;5040600;28;20096;-60
2022/03/30 09:50:51;;;;;;;16.05;9.55;;;17.20;61.30;;;;;;5046581;28;20204;-59
2022/03/30 09:53:17;;;;;;;15.55;9.30;;;17.20;61.40;;;;;;5046475;28;20469;-59
2022/03/30 09:56:04;;;;;;;16.15;9.95;;;17.20;61.30;;;;;;5043579;28;20033;-59
2022/03/30 09:58:36;;;;;;;16.20;10.10;;;17.20;61.40;;;;;;5045259;28;20556;-59
2022/03/30 10:01:22;;;;;;;17.20;10.40;;;17.20;61.40;;;;;;5039094;28;20028;-59
2022/03/30 10:03:50;;;;;;;16.00;9.38;;;17.20;61.30;;;;;;5045917;28;20143;-59
2022/03/30 10:06:36;;;;;;;16.45;9.75;;;17.20;61.20;;;;;;5045331;28;20028;-59
2022/03/30 10:09:01;;;;;;;15.20;9.85;;;17.20;61.20;;;;;;5045706;28;20107;-59
2022/03/30 10:11:28;;;;;;;15.77;9.38;;;17.20;61.20;;;;;;5047362;28;20115;-59
2022/03/30 10:13:55;;;;;;;16.67;9.52;;;17.20;61.00;;;;;;5045223;28;20511;-59
2022/03/30 10:16:22;;;;;;;16.35;9.40;;;17.20;61.20;;;;;;5045163;28;20029;-59
2022/03/30 10:18:51;;;;;;;16.13;9.60;;;17.20;61.20;;;;;;5045774;28;20184;-59
2022/03/30 10:21:44;;;;;;;15.75;9.65;;;17.20;61.20;;;;;;5045004;28;20025;-59
2022/03/30 10:24:33;;;;;;;16.52;9.85;;;17.20;61.30;;;;;;5044213;28;20033;-59
2022/03/30 10:27:21;;;;;;;16.48;9.23;;;17.30;61.20;;;;;;5044382;28;20404;-59
2022/03/30 10:29:54;;;;;;;15.25;9.60;;;17.30;61.20;;;;;;5043481;28;20430;-59
2022/03/30 10:32:21;;;;;;;16.17;9.45;;;17.20;61.20;;;;;;5042571;28;20036;-59
2022/03/30 10:34:53;;;;;;;16.13;9.23;;;17.30;61.20;;;;;;5045072;28;20421;-59
2022/03/30 10:37:27;;;;;;;17.05;9.45;;;17.30;61.10;;;;;;5044696;28;20037;-59
2022/03/30 10:39:54;;;;;;;14.48;8.60;;;17.20;61.10;;;;;;5045741;28;20540;-59
2022/03/30 10:42:19;;;;;;;14.30;8.73;;;17.20;61.10;;;;;;5038284;28;20037;-59
2022/03/30 10:44:46;;;;;;;16.20;9.80;;;17.20;61.10;;;;;;5044844;28;20536;-59
2022/03/30 10:47:23;;;;;;;15.20;8.82;;;17.20;61.10;;;;;;5046106;28;20114;-59
2022/03/30 10:49:55;;;;;;;14.45;9.18;;;17.30;61.10;;;;;;5044376;28;20025;-59
2022/03/30 10:52:34;;;;;;;14.57;9.15;;;17.20;61.10;;;;;;5039226;28;20032;-59
2022/03/30 10:55:15;;;;;;;15.80;8.98;;;17.30;61.00;;;;;;5044179;28;20029;-59
2022/03/30 10:57:48;;;;;;;15.13;9.48;;;17.30;61.00;;;;;;5045710;28;20029;-59
2022/03/30 11:00:18;;;;;;;15.57;9.30;;;17.30;61.00;;;;;;5045269;28;20033;-59
2022/03/30 11:02:44;;;;;;;14.05;9.02;;;17.30;60.90;;;;;;5039124;28;20053;-59
2022/03/30 11:05:13;;;;;;;15.57;8.95;;;17.30;61.00;;;;;;5043659;28;20445;-59
2022/03/30 11:07:39;;;;;;;14.63;8.90;;;17.30;60.80;;;;;;5043824;28;20032;-59
2022/03/30 11:10:23;;;;;;;14.30;8.63;;;17.30;60.80;;;;;;5049072;28;20029;-59
2022/03/30 11:13:00;;;;;;;15.55;9.02;;;17.30;60.90;;;;;;5046009;28;20024;-59
2022/03/30 11:15:26;;;;;;;13.98;8.77;;;17.40;60.90;;;;;;5048689;28;20551;-59
2022/03/30 11:17:52;;;;;;;14.73;8.60;;;17.30;60.70;;;;;;5049142;28;20057;-59
2022/03/30 11:20:19;;;;;;;13.60;8.55;;;17.40;60.70;;;;;;5048680;28;20110;-59
2022/03/30 11:22:46;;;;;;;14.05;8.35;;;17.40;60.80;;;;;;5044611;28;20034;-59
2022/03/30 11:25:23;;;;;;;14.05;9.05;;;17.40;60.80;;;;;;5047440;28;20040;-59
2022/03/30 11:27:57;;;;;;;15.15;8.88;;;17.40;60.80;;;;;;5048194;28;20028;-60
2022/03/30 11:30:24;;;;;;;;;;;17.40;60.80;;;;;;5049031;28;20029;-59
2022/03/30 11:32:49;;;;;;;14.77;8.73;;;17.40;60.60;;;;;;5048877;28;20285;-59
2022/03/30 11:35:17;;;;;;;13.63;8.40;;;17.40;60.70;;;;;;5047163;28;20259;-59
2022/03/30 11:37:46;;;;;;;15.40;8.55;;;17.40;60.60;;;;;;5048618;28;20127;-59
2022/03/30 11:40:17;;;;;;;14.48;8.52;;;17.50;60.70;;;;;;5043393;28;20079;-59
2022/03/30 11:42:50;;;;;;;15.50;8.80;;;17.50;60.70;;;;;;5048482;28;20552;-59
2022/03/30 11:45:19;;;;;;;15.48;8.90;;;17.50;60.70;;;;;;5045987;28;20037;-59
2022/03/30 11:48:01;;;;;;;13.70;8.48;;;17.50;60.70;;;;;;5047935;28;20028;-59
2022/03/30 11:50:37;;;;;;;15.57;9.05;;;17.50;60.70;;;;;;5044399;28;20036;-59
2022/03/30 11:53:10;;;;;;;13.82;8.63;;;17.50;60.70;;;;;;5048177;28;20151;-59
2022/03/30 11:55:57;;;;;;;15.85;8.48;;;17.50;60.60;;;;;;5046050;28;20116;-59
2022/03/30 11:58:29;;;;;;;13.55;7.97;;;17.60;60.60;;;;;;5044084;28;20120;-59
2022/03/30 12:00:56;;;;;;;14.40;8.45;;;17.60;60.50;;;;;;5047292;28;20024;-59
2022/03/30 12:03:22;;;;;;;14.35;8.40;;;17.60;60.30;;;;;;5046875;28;20951;-59
2022/03/30 12:05:51;;;;;;;12.25;7.65;;;17.60;60.30;;;;;;5048173;28;20025;-59
2022/03/30 12:08:17;;;;;;;13.63;8.70;;;17.60;60.30;;;;;;5046750;28;20094;-59
2022/03/30 12:10:43;;;;;;;13.52;7.60;;;17.60;60.30;;;;;;5047184;28;20036;-59
2022/03/30 12:13:08;;;;;;;12.52;8.18;;;17.60;60.40;;;;;;5045523;28;20055;-59
2022/03/30 12:15:36;;;;;;;14.05;8.00;;;17.60;60.40;;;;;;5047668;28;20037;-59
2022/03/30 12:18:02;;;;;;;13.68;8.02;;;17.60;60.40;;;;;;5046570;28;20029;-59
2022/03/30 12:20:34;;;;;;;14.10;8.68;;;17.60;60.50;;;;;;5048237;28;20029;-59
2022/03/30 12:23:06;;;;;;;14.98;9.05;;;17.60;60.30;;;;;;5047991;28;20031;-59
2022/03/30 12:25:37;;;;;;;13.25;8.13;;;17.60;60.30;;;;;;5046785;28;20052;-59
2022/03/30 12:28:03;;;;;;;13.48;8.20;;;17.70;60.10;;;;;;5047327;28;20029;-59
2022/03/30 12:30:35;;;;;;;12.70;7.57;;;17.70;60.20;;;;;;5047240;28;20036;-59
2022/03/30 12:33:01;;;;;;;13.10;7.53;;;17.80;60.20;;;;;;5043669;28;20131;-60
2022/03/30 12:35:45;;;;;;;16.73;8.00;;;17.80;60.20;;;;;;5044020;28;20470;-60
2022/03/30 12:38:11;;;;;;;13.50;8.02;;;17.90;60.00;;;;;;5047194;28;20060;-60
2022/03/30 12:40:41;;;;;;;12.00;7.40;;;18.00;59.90;;;;;;5038965;28;20452;-60
2022/03/30 12:43:07;;;;;;;13.52;7.93;;;18.00;59.70;;;;;;5042325;28;20032;-60